createdAt,value
2019-04-07T00:02:31.484Z,48.70
2019-04-07T00:07:36.984Z,49.90
2019-04-07T00:12:42.599Z,50.93
2019-04-07T00:17:49.538Z,53.33
2019-04-07T00:22:55.332Z,55.33
2019-04-07T00:28:00.864Z,52.03
2019-04-07T00:33:06.492Z,67.00
2019-04-07T00:38:11.855Z,69.42
2019-04-07T00:43:17.420Z,57.67
2019-04-07T00:48:23.316Z,55.53
2019-04-07T00:53:28.918Z,63.43
2019-04-07T00:58:34.480Z,58.23
2019-04-07T01:03:40.292Z,60.17
2019-04-07T01:08:46.370Z,59.47
2019-04-07T01:13:51.921Z,68.23
2019-04-07T01:18:59.157Z,59.33
2019-04-07T01:24:05.554Z,59.53
2019-04-07T01:29:11.183Z,65.27
2019-04-07T01:34:16.743Z,62.07
2019-04-07T01:39:22.945Z,65.00
2019-04-07T01:44:42.350Z,67.03
2019-04-07T01:50:13.154Z,73.67
2019-04-07T01:55:36.317Z,74.93
2019-04-07T02:01:15.880Z,70.23
2019-04-07T02:06:46.392Z,72.30
2019-04-07T02:12:25.951Z,76.28
2019-04-07T02:17:53.213Z,81.17
2019-04-07T02:23:12.965Z,79.77
2019-04-07T02:28:52.628Z,80.77
2019-04-07T02:34:22.416Z,79.10
2019-04-07T02:39:56.771Z,76.80
2019-04-07T02:45:28.224Z,97.77
2019-04-07T02:51:05.712Z,72.77
2019-04-07T02:56:17.273Z,87.20
2019-04-07T03:01:41.719Z,87.43
2019-04-07T03:07:06.772Z,94.87
2019-04-07T03:12:34.979Z,81.57
2019-04-07T03:17:56.266Z,93.97
2019-04-07T03:23:22.289Z,96.93
2019-04-07T03:28:47.477Z,96.23
2019-04-07T03:34:13.928Z,98.90
2019-04-07T03:39:28.635Z,90.80
2019-04-07T03:44:53.255Z,95.40
2019-04-07T03:50:16.281Z,108.27
2019-04-07T03:55:40.734Z,94.17
2019-04-07T04:01:17.514Z,103.83
2019-04-07T04:06:42.119Z,104.73
2019-04-07T04:11:55.688Z,106.47
2019-04-07T04:17:02.108Z,96.93
2019-04-07T04:22:07.777Z,112.97
2019-04-07T04:27:14.826Z,115.57
2019-04-07T04:32:21.566Z,125.37
2019-04-07T04:37:40.391Z,116.27
2019-04-07T04:42:35.791Z,122.80
2019-04-07T04:47:41.493Z,121.23
2019-04-07T04:52:47.020Z,123.83
2019-04-07T04:57:52.541Z,124.57
2019-04-07T05:02:59.386Z,116.47
2019-04-07T05:08:05.571Z,113.50
2019-04-07T05:13:11.984Z,115.43
2019-04-07T05:18:17.563Z,116.97
2019-04-07T05:23:23.096Z,117.13
2019-04-07T05:28:29.625Z,120.67
2019-04-07T05:33:36.671Z,131.70
2019-04-07T05:38:42.505Z,122.53
2019-04-07T05:43:48.132Z,121.93
2019-04-07T05:48:53.784Z,123.50
2019-04-07T05:53:59.323Z,133.13
2019-04-07T05:59:05.069Z,113.07
2019-04-07T06:04:14.256Z,128.03
2019-04-07T06:09:19.031Z,143.97
2019-04-07T06:14:25.892Z,134.23
2019-04-07T06:19:31.643Z,144.03
2019-04-07T06:24:37.078Z,139.03
2019-04-07T06:29:43.431Z,140.67
2019-04-07T06:34:50.595Z,153.53
2019-04-07T06:39:57.066Z,143.27
2019-04-07T06:45:04.049Z,139.07
2019-04-07T06:50:16.923Z,150.67
2019-04-07T06:55:44.068Z,148.27
2019-04-07T07:01:25.187Z,147.77
2019-04-07T07:07:02.328Z,143.47
2019-04-07T07:12:42.365Z,140.20
2019-04-07T07:18:06.734Z,142.47
2019-04-07T07:23:16.861Z,128.00
2019-04-07T07:28:22.756Z,147.10
2019-04-07T07:33:29.210Z,143.37
2019-04-07T07:38:34.977Z,155.40
2019-04-07T07:43:41.426Z,140.30
2019-04-07T07:48:46.856Z,145.97
2019-04-07T07:53:56.588Z,144.53
2019-04-07T07:59:01.777Z,132.87
2019-04-07T08:04:27.966Z,135.90
2019-04-07T08:09:33.746Z,139.13
2019-04-07T08:14:39.342Z,147.30
2019-04-07T08:19:47.683Z,118.63
2019-04-07T08:24:53.617Z,148.90
2019-04-07T08:29:59.324Z,140.73
2019-04-07T08:35:05.768Z,140.10
2019-04-07T08:40:11.973Z,138.47
2019-04-07T08:45:17.938Z,134.90
2019-04-07T08:50:27.230Z,132.23
2019-04-07T08:55:30.925Z,137.20
2019-04-07T09:00:38.878Z,145.90
2019-04-07T09:05:45.518Z,140.23
2019-04-07T09:10:56.598Z,143.27
2019-04-07T09:16:24.688Z,141.60
2019-04-07T09:21:45.024Z,150.67
2019-04-07T09:27:19.438Z,146.53
2019-04-07T09:32:56.799Z,147.97
2019-04-07T09:38:21.692Z,153.37
2019-04-07T09:43:36.844Z,172.57
2019-04-07T09:48:59.951Z,171.40
2019-04-07T09:54:22.209Z,162.20
2019-04-07T09:59:55.683Z,162.07
2019-04-07T10:05:20.788Z,180.47
2019-04-07T10:10:37.349Z,180.40
2019-04-07T10:16:14.872Z,175.90
2019-04-07T10:21:55.143Z,179.93
2019-04-07T10:27:18.752Z,184.33
2019-04-07T10:32:34.136Z,189.47
2019-04-07T10:37:51.695Z,191.10
2019-04-07T10:43:26.159Z,182.27
2019-04-07T10:48:48.571Z,187.03
2019-04-07T10:54:19.869Z,194.73
2019-04-07T10:59:40.473Z,214.90
2019-04-07T11:05:09.574Z,207.53
2019-04-07T11:10:36.118Z,175.07
2019-04-07T11:16:06.288Z,175.20
2019-04-07T11:21:37.064Z,190.07
2019-04-07T11:26:49.685Z,178.83
2019-04-07T11:32:17.627Z,187.93
2019-04-07T11:37:39.161Z,197.03
2019-04-07T11:43:07.157Z,181.20
2019-04-07T11:48:38.335Z,199.23
2019-04-07T11:53:54.473Z,191.00
2019-04-07T11:59:20.356Z,184.03
2019-04-07T12:04:37.979Z,182.30
2019-04-07T12:10:09.527Z,160.30
2019-04-07T12:15:30.871Z,174.03
2019-04-07T12:21:02.339Z,170.53
2019-04-07T12:26:31.477Z,166.93
2019-04-07T12:31:58.331Z,168.23
2019-04-07T12:37:31.831Z,170.10
2019-04-07T12:43:01.151Z,170.43
2019-04-07T12:48:39.131Z,159.77
2019-04-07T12:53:54.721Z,161.07
2019-04-07T12:59:19.202Z,171.77
2019-04-07T13:04:42.899Z,150.07
2019-04-07T13:10:25.430Z,167.50
2019-04-07T13:16:01.611Z,164.37
2019-04-07T13:21:18.224Z,158.87
2019-04-07T13:26:40.114Z,161.43
2019-04-07T13:31:56.863Z,135.77
2019-04-07T13:37:18.859Z,145.03
2019-04-07T13:42:35.645Z,143.23
2019-04-07T13:47:48.604Z,141.70
2019-04-07T13:53:17.469Z,142.43
2019-04-07T13:58:54.538Z,150.60
2019-04-07T14:04:08.932Z,136.87
2019-04-07T14:09:22.662Z,136.70
2019-04-07T14:14:48.355Z,124.90
2019-04-07T14:20:11.790Z,137.87
2019-04-07T14:25:27.950Z,127.73
2019-04-07T14:30:53.362Z,141.53
2019-04-07T14:36:27.336Z,137.70
2019-04-07T14:42:01.354Z,125.10
2019-04-07T14:47:14.027Z,132.90
2019-04-07T14:52:50.878Z,135.20
2019-04-07T14:58:28.119Z,120.50
2019-04-07T15:03:33.974Z,112.93
2019-04-07T15:08:56.883Z,121.37
2019-04-07T15:14:02.839Z,114.77
2019-04-07T15:19:08.498Z,109.43
2019-04-07T15:24:13.952Z,120.10
2019-04-07T15:29:19.924Z,107.03
2019-04-07T15:34:26.304Z,105.57
2019-04-07T15:39:32.444Z,112.60
2019-04-07T15:44:39.696Z,105.20
2019-04-07T15:49:46.438Z,100.67
2019-04-07T15:54:53.671Z,102.60
2019-04-07T16:00:02.486Z,104.60
2019-04-07T16:05:06.767Z,106.13
2019-04-07T16:10:13.264Z,89.80
2019-04-07T16:15:19.629Z,100.53
2019-04-07T16:20:32.540Z,95.40
2019-04-07T16:25:36.559Z,95.10
2019-04-07T16:30:42.896Z,85.77
2019-04-07T16:35:52.786Z,82.13
2019-04-07T16:40:55.974Z,89.83
2019-04-07T16:46:01.836Z,95.17
2019-04-07T16:51:07.343Z,96.37
2019-04-07T16:56:13.347Z,96.23
2019-04-07T17:01:18.914Z,94.00
2019-04-07T17:06:25.112Z,90.17
2019-04-07T17:11:32.271Z,94.70
2019-04-07T17:16:42.190Z,99.30
2019-04-07T17:21:45.416Z,93.43
2019-04-07T17:26:51.744Z,83.63
2019-04-07T17:32:01.190Z,87.70
2019-04-07T17:37:05.259Z,79.83
2019-04-07T17:42:13.198Z,81.80
2019-04-07T17:47:41.629Z,74.23
2019-04-07T17:52:56.926Z,84.30
2019-04-07T17:58:10.049Z,81.23
2019-04-07T18:03:49.768Z,83.10
2019-04-07T18:09:12.003Z,92.40
2019-04-07T18:14:40.614Z,85.23
2019-04-07T18:19:59.652Z,88.70
2019-04-07T18:25:25.141Z,91.27
2019-04-07T18:30:56.289Z,86.80
2019-04-07T18:36:20.853Z,95.33
2019-04-07T18:41:49.369Z,89.97
2019-04-07T18:47:15.134Z,110.13
2019-04-07T18:52:48.699Z,114.13
2019-04-07T18:58:19.029Z,103.83
2019-04-07T19:03:40.633Z,93.97
2019-04-07T19:09:04.756Z,99.00
2019-04-07T19:14:39.438Z,110.85
2019-04-07T19:19:49.412Z,116.25
2019-04-07T19:25:23.401Z,109.52
2019-04-07T19:30:49.828Z,114.30
2019-04-07T19:36:22.887Z,106.58
2019-04-07T19:41:46.810Z,105.35
2019-04-07T19:47:18.295Z,104.07
2019-04-07T19:52:59.520Z,100.33
2019-04-07T19:58:19.702Z,98.30
2019-04-07T20:03:36.996Z,86.63
2019-04-07T20:08:58.268Z,87.20
2019-04-07T20:14:26.272Z,97.53
2019-04-07T20:19:59.842Z,87.20
2019-04-07T20:25:34.282Z,93.90
2019-04-07T20:30:52.422Z,100.20
2019-04-07T20:36:35.959Z,112.37
2019-04-07T20:41:49.376Z,111.22
2019-04-07T20:47:22.989Z,105.47
2019-04-07T20:52:44.908Z,107.23
2019-04-07T20:58:41.597Z,106.13
2019-04-07T21:04:02.309Z,117.33
2019-04-07T21:09:25.632Z,106.07
2019-04-07T21:15:18.407Z,107.73
2019-04-07T21:20:34.226Z,104.60
2019-04-07T21:26:04.570Z,113.63
2019-04-07T21:31:47.684Z,114.30
2019-04-07T21:37:14.772Z,113.87
2019-04-07T21:42:40.213Z,120.40
2019-04-07T21:48:03.617Z,118.57
2019-04-07T21:53:32.070Z,123.07
2019-04-07T21:58:56.927Z,125.60
2019-04-07T22:04:21.441Z,125.77
2019-04-07T22:09:40.743Z,127.47
2019-04-07T22:14:47.537Z,126.57
2019-04-07T22:19:53.169Z,135.70
2019-04-07T22:24:58.818Z,132.17
2019-04-07T22:30:07.636Z,143.83
2019-04-07T22:35:13.475Z,127.20
2019-04-07T22:40:21.360Z,124.80
2019-04-07T22:45:29.729Z,134.23
2019-04-07T22:50:37.231Z,125.20
2019-04-07T22:55:42.043Z,125.77
2019-04-07T23:00:47.907Z,128.90
2019-04-07T23:05:53.511Z,140.23
2019-04-07T23:11:00.049Z,133.30
2019-04-07T23:16:10.749Z,133.90
2019-04-07T23:21:13.076Z,124.03
2019-04-07T23:26:18.722Z,137.03
2019-04-07T23:31:24.568Z,131.47
2019-04-07T23:36:30.533Z,124.03
2019-04-07T23:41:36.024Z,138.97
2019-04-07T23:46:41.589Z,134.53
2019-04-07T23:51:47.590Z,137.87
2019-04-07T23:56:54.015Z,141.93
